createdAt,value
2017-07-16T00:00:52.634Z,14.00
2017-07-16T00:03:21.101Z,14.10
2017-07-16T00:05:48.645Z,14.10
2017-07-16T00:08:16.165Z,14.00
2017-07-16T00:10:43.714Z,13.70
2017-07-16T00:13:11.308Z,13.70
2017-07-16T00:15:38.853Z,13.60
2017-07-16T00:18:06.393Z,13.80
2017-07-16T00:20:34.081Z,13.80
2017-07-16T00:23:01.655Z,13.90
2017-07-16T00:25:29.172Z,13.90
2017-07-16T00:27:56.693Z,14.00
2017-07-16T00:30:24.437Z,13.70
2017-07-16T00:32:51.973Z,13.70
2017-07-16T00:35:19.580Z,13.60
2017-07-16T00:37:47.150Z,13.70
2017-07-16T00:40:15.555Z,13.70
2017-07-16T00:42:43.897Z,13.70
2017-07-16T00:45:11.461Z,13.60
2017-07-16T00:47:38.972Z,13.80
2017-07-16T00:50:06.520Z,13.30
2017-07-16T00:52:34.932Z,13.80
2017-07-16T00:55:02.509Z,13.70
2017-07-16T00:57:30.033Z,13.50
2017-07-16T00:59:57.589Z,13.40
2017-07-16T01:02:25.136Z,13.60
2017-07-16T01:04:52.697Z,13.90
2017-07-16T01:07:20.973Z,14.00
2017-07-16T01:09:49.301Z,13.80
2017-07-16T01:12:16.816Z,13.80
2017-07-16T01:14:44.353Z,14.00
2017-07-16T01:17:11.984Z,13.90
2017-07-16T01:19:39.543Z,13.60
2017-07-16T01:22:07.055Z,13.50
2017-07-16T01:24:35.620Z,13.30
2017-07-16T01:27:03.320Z,13.20
2017-07-16T01:29:30.836Z,13.50
2017-07-16T01:31:58.534Z,13.60
2017-07-16T01:34:26.236Z,13.90
2017-07-16T01:36:53.784Z,13.60
2017-07-16T01:39:21.377Z,13.50
2017-07-16T01:41:48.940Z,13.40
2017-07-16T01:44:16.456Z,13.50
2017-07-16T01:46:44.071Z,13.40
2017-07-16T01:49:11.796Z,13.30
2017-07-16T01:51:39.356Z,13.40
2017-07-16T01:54:06.917Z,13.20
2017-07-16T01:56:34.438Z,13.00
2017-07-16T01:59:01.963Z,13.00
2017-07-16T02:01:29.521Z,12.80
2017-07-16T02:03:57.221Z,12.90
2017-07-16T02:06:25.513Z,13.00
2017-07-16T02:08:53.084Z,12.90
2017-07-16T02:11:20.610Z,13.00
2017-07-16T02:13:48.908Z,13.20
2017-07-16T02:16:16.698Z,13.10
2017-07-16T02:18:44.414Z,13.10
2017-07-16T02:21:12.738Z,13.00
2017-07-16T02:23:40.264Z,12.90
2017-07-16T02:26:08.604Z,13.40
2017-07-16T02:28:36.121Z,13.30
2017-07-16T02:31:03.852Z,13.40
2017-07-16T02:33:31.441Z,13.30
2017-07-16T02:35:59.076Z,13.10
2017-07-16T02:38:26.696Z,12.70
2017-07-16T02:40:54.518Z,12.50
2017-07-16T02:43:22.845Z,12.40
2017-07-16T02:45:50.556Z,12.30
2017-07-16T02:48:18.893Z,12.80
2017-07-16T02:50:46.433Z,12.80
2017-07-16T02:53:13.950Z,13.00
2017-07-16T02:55:42.376Z,13.10
2017-07-16T02:58:09.893Z,13.10
2017-07-16T03:00:38.301Z,12.80
2017-07-16T03:03:05.898Z,12.70
2017-07-16T03:05:33.420Z,12.70
2017-07-16T03:08:00.940Z,12.60
2017-07-16T03:10:28.506Z,12.80
2017-07-16T03:12:56.028Z,12.60
2017-07-16T03:15:23.723Z,12.50
2017-07-16T03:17:51.374Z,12.40
2017-07-16T03:20:18.941Z,12.60
2017-07-16T03:22:46.506Z,12.30
2017-07-16T03:25:37.617Z,12.30
2017-07-16T03:28:05.126Z,12.50
2017-07-16T03:30:32.653Z,12.50
2017-07-16T03:33:00.991Z,12.50
2017-07-16T03:35:28.590Z,12.40
2017-07-16T03:37:56.885Z,12.20
2017-07-16T03:40:25.281Z,12.30
2017-07-16T03:42:53.013Z,12.20
2017-07-16T03:45:20.524Z,12.40
2017-07-16T03:47:48.116Z,12.30
2017-07-16T03:50:15.729Z,12.30
2017-07-16T03:52:43.512Z,12.10
2017-07-16T03:55:11.186Z,12.20
2017-07-16T03:57:38.759Z,12.30
2017-07-16T04:00:06.377Z,12.10
2017-07-16T04:02:33.947Z,12.00
2017-07-16T04:05:01.503Z,12.20
2017-07-16T04:07:29.016Z,12.40
2017-07-16T04:09:56.629Z,12.50
2017-07-16T04:12:24.141Z,12.40
2017-07-16T04:14:51.674Z,12.00
2017-07-16T04:17:19.242Z,11.60
2017-07-16T04:19:46.784Z,11.50
2017-07-16T04:22:14.300Z,11.80
2017-07-16T04:24:42.627Z,12.30
2017-07-16T04:27:10.153Z,12.20
2017-07-16T04:29:37.673Z,12.40
2017-07-16T04:32:05.245Z,12.70
2017-07-16T04:34:32.822Z,12.80
2017-07-16T04:37:00.487Z,12.90
2017-07-16T04:39:28.804Z,13.30
2017-07-16T04:41:56.326Z,13.20
2017-07-16T04:44:24.644Z,13.60
2017-07-16T04:46:52.237Z,13.50
2017-07-16T04:49:19.833Z,13.60
2017-07-16T04:51:47.422Z,13.90
2017-07-16T04:54:14.944Z,14.10
2017-07-16T04:56:43.262Z,14.50
2017-07-16T04:59:10.816Z,14.50
2017-07-16T05:01:38.484Z,14.70
2017-07-16T05:04:06.090Z,14.80
2017-07-16T05:06:33.640Z,15.10
2017-07-16T05:09:01.197Z,15.30
2017-07-16T05:11:28.708Z,15.30
2017-07-16T05:13:56.335Z,15.30
2017-07-16T05:16:23.893Z,15.50
2017-07-16T05:18:51.411Z,15.50
2017-07-16T05:21:18.932Z,15.60
2017-07-16T05:23:46.546Z,15.60
2017-07-16T05:26:14.112Z,15.80
2017-07-16T05:28:41.629Z,16.00
2017-07-16T05:31:09.480Z,16.20
2017-07-16T05:33:37.754Z,16.50
2017-07-16T05:36:06.065Z,16.70
2017-07-16T05:38:33.667Z,16.60
2017-07-16T05:41:01.248Z,16.50
2017-07-16T05:43:28.986Z,16.40
2017-07-16T05:45:56.549Z,16.50
2017-07-16T05:48:24.064Z,16.50
2017-07-16T05:50:51.657Z,16.40
2017-07-16T05:53:19.212Z,16.60
2017-07-16T05:55:46.763Z,16.80
2017-07-16T05:58:14.381Z,17.00
2017-07-16T06:00:41.900Z,17.30
2017-07-16T06:03:09.515Z,17.40
2017-07-16T06:05:37.085Z,17.30
2017-07-16T06:08:04.680Z,17.30
2017-07-16T06:10:32.232Z,17.20
2017-07-16T06:13:00.356Z,17.50
2017-07-16T06:15:27.882Z,17.60
2017-07-16T06:17:55.530Z,18.00
2017-07-16T06:20:23.101Z,17.80
2017-07-16T06:22:50.750Z,17.90
2017-07-16T06:25:18.310Z,17.70
2017-07-16T06:27:45.894Z,17.90
2017-07-16T06:30:13.499Z,18.00
2017-07-16T06:32:41.169Z,18.00
2017-07-16T06:35:08.754Z,18.20
2017-07-16T06:37:36.411Z,18.40
2017-07-16T06:40:03.983Z,18.50
2017-07-16T06:42:31.545Z,18.30
2017-07-16T06:44:59.073Z,18.30
2017-07-16T06:47:26.625Z,18.40
2017-07-16T06:49:54.933Z,18.80
2017-07-16T06:52:22.504Z,18.80
2017-07-16T06:54:50.078Z,18.90
2017-07-16T06:57:17.714Z,19.00
2017-07-16T06:59:45.246Z,19.40
2017-07-16T07:02:12.832Z,19.60
2017-07-16T07:04:40.472Z,19.60
2017-07-16T07:07:08.026Z,19.70
2017-07-16T07:09:36.356Z,19.90
2017-07-16T07:12:03.981Z,19.90
2017-07-16T07:14:31.497Z,20.10
2017-07-16T07:16:59.073Z,20.40
2017-07-16T07:19:26.596Z,20.70
2017-07-16T07:21:54.115Z,20.70
2017-07-16T07:24:22.463Z,20.90
2017-07-16T07:26:49.984Z,20.90
2017-07-16T07:29:17.591Z,21.10
2017-07-16T07:31:45.140Z,21.30
2017-07-16T07:34:12.657Z,21.50
2017-07-16T07:36:40.243Z,21.90
2017-07-16T07:39:08.697Z,22.00
2017-07-16T07:41:36.241Z,21.80
2017-07-16T07:44:04.555Z,20.60
2017-07-16T07:46:32.092Z,20.50
2017-07-16T07:48:59.656Z,20.60
2017-07-16T07:51:27.321Z,20.70
2017-07-16T07:53:57.355Z,21.30
2017-07-16T07:56:29.889Z,21.80
2017-07-16T07:58:57.613Z,22.30
2017-07-16T08:01:26.640Z,22.20
2017-07-16T08:03:55.004Z,22.20
2017-07-16T08:06:22.657Z,22.60
2017-07-16T08:08:50.326Z,22.80
2017-07-16T08:11:18.748Z,21.90
2017-07-16T08:13:47.325Z,21.80
2017-07-16T08:16:17.190Z,21.60
2017-07-16T08:18:46.242Z,21.40
2017-07-16T08:21:14.013Z,21.00
2017-07-16T08:23:44.789Z,20.90
2017-07-16T08:26:12.771Z,21.20
2017-07-16T08:28:41.831Z,21.70
2017-07-16T08:31:10.283Z,22.20
2017-07-16T08:33:40.152Z,22.60
2017-07-16T08:36:08.877Z,22.90
2017-07-16T08:38:38.537Z,23.30
2017-07-16T08:41:08.316Z,22.80
2017-07-16T08:43:38.663Z,22.50
2017-07-16T08:46:07.849Z,22.10
2017-07-16T08:48:36.124Z,22.10
2017-07-16T08:51:04.730Z,21.70
2017-07-16T08:53:32.897Z,21.50
2017-07-16T08:56:01.087Z,21.20
2017-07-16T08:58:29.349Z,21.20
2017-07-16T09:00:57.654Z,21.90
2017-07-16T09:03:26.142Z,22.60
2017-07-16T09:05:54.427Z,22.70
2017-07-16T09:08:22.623Z,23.10
2017-07-16T09:10:51.301Z,23.60
2017-07-16T09:13:19.658Z,24.20
2017-07-16T09:15:48.971Z,24.10
2017-07-16T09:18:18.625Z,23.30
2017-07-16T09:20:50.024Z,23.00
2017-07-16T09:23:19.253Z,22.90
2017-07-16T09:25:47.850Z,22.70
2017-07-16T09:28:16.939Z,22.40
2017-07-16T09:30:45.911Z,22.20
2017-07-16T09:33:16.823Z,21.90
2017-07-16T09:35:46.025Z,21.70
2017-07-16T09:38:14.229Z,21.50
2017-07-16T09:40:43.279Z,21.30
2017-07-16T09:43:12.654Z,21.30
2017-07-16T09:45:42.189Z,21.30
2017-07-16T09:50:59.650Z,21.00
2017-07-16T09:53:27.802Z,21.00
2017-07-16T09:55:55.994Z,21.00
2017-07-16T09:58:24.149Z,21.30
2017-07-16T10:00:52.263Z,22.00
2017-07-16T10:03:21.889Z,22.70
2017-07-16T10:05:50.990Z,23.40
2017-07-16T10:08:24.478Z,24.40
2017-07-16T10:10:54.949Z,25.00
2017-07-16T10:13:24.246Z,24.90
2017-07-16T10:15:54.392Z,25.60
2017-07-16T10:18:24.349Z,25.60
2017-07-16T10:20:53.904Z,24.70
2017-07-16T10:23:22.197Z,24.60
2017-07-16T10:25:52.057Z,24.30
2017-07-16T10:28:21.363Z,24.10
2017-07-16T10:30:50.779Z,24.60
2017-07-16T10:33:19.545Z,24.90
2017-07-16T10:35:47.745Z,25.10
2017-07-16T10:38:16.578Z,25.40
2017-07-16T10:40:44.785Z,25.50
2017-07-16T10:43:13.474Z,25.30
2017-07-16T10:45:43.113Z,25.40
2017-07-16T10:48:13.179Z,25.70
2017-07-16T10:50:41.437Z,26.10
2017-07-16T10:53:10.057Z,26.40
2017-07-16T10:55:38.628Z,26.10
2017-07-16T10:58:08.868Z,26.30
2017-07-16T11:00:37.268Z,26.40
2017-07-16T11:03:06.988Z,26.10
2017-07-16T11:05:35.454Z,26.10
2017-07-16T11:08:04.814Z,26.20
2017-07-16T11:10:34.719Z,26.30
2017-07-16T11:13:02.858Z,26.30
2017-07-16T11:15:31.155Z,26.20
2017-07-16T11:18:00.356Z,26.30
2017-07-16T11:20:29.286Z,25.70
2017-07-16T11:22:58.178Z,25.60
2017-07-16T11:25:27.175Z,24.50
2017-07-16T11:27:55.151Z,24.40
2017-07-16T11:30:23.471Z,24.20
2017-07-16T11:32:52.375Z,24.00
2017-07-16T11:35:21.833Z,24.70
2017-07-16T11:37:50.958Z,25.50
2017-07-16T11:40:19.955Z,26.20
2017-07-16T11:42:49.185Z,26.60
2017-07-16T11:45:17.902Z,26.70
2017-07-16T11:47:48.349Z,27.00
2017-07-16T11:50:16.786Z,27.10
2017-07-16T11:52:45.033Z,27.10
2017-07-16T11:55:14.174Z,27.10
2017-07-16T11:57:42.602Z,27.50
2017-07-16T12:00:10.839Z,27.80
2017-07-16T12:02:39.410Z,28.10
2017-07-16T12:05:07.752Z,27.80
2017-07-16T12:07:36.545Z,27.20
2017-07-16T12:10:04.780Z,26.60
2017-07-16T12:12:33.365Z,26.00
2017-07-16T12:15:01.458Z,25.10
2017-07-16T12:17:29.107Z,24.60
2017-07-16T12:19:56.796Z,24.70
2017-07-16T12:22:24.361Z,24.60
2017-07-16T12:24:51.876Z,24.30
2017-07-16T12:27:19.388Z,24.20
2017-07-16T12:29:47.061Z,24.20
2017-07-16T12:32:14.722Z,23.90
2017-07-16T12:34:42.240Z,23.50
2017-07-16T12:37:10.469Z,23.70
2017-07-16T12:39:37.988Z,23.70
2017-07-16T12:42:06.827Z,23.90
2017-07-16T12:44:34.384Z,23.80
2017-07-16T12:47:01.937Z,24.10
2017-07-16T12:49:29.469Z,23.70
2017-07-16T12:51:57.956Z,23.40
2017-07-16T12:54:25.477Z,23.40
2017-07-16T12:56:53.047Z,23.30
2017-07-16T12:59:20.592Z,23.30
2017-07-16T13:01:48.156Z,23.00
2017-07-16T13:04:15.670Z,23.10
2017-07-16T13:06:43.184Z,23.30
2017-07-16T13:09:10.728Z,23.20
2017-07-16T13:11:38.296Z,23.30
2017-07-16T13:14:05.809Z,23.30
2017-07-16T13:16:33.339Z,23.60
2017-07-16T13:19:00.894Z,23.70
2017-07-16T13:21:29.173Z,23.40
2017-07-16T13:23:57.487Z,23.20
2017-07-16T13:26:25.064Z,23.20
2017-07-16T13:28:52.585Z,23.20
2017-07-16T13:31:20.895Z,23.00
2017-07-16T13:33:48.452Z,22.90
2017-07-16T13:36:15.965Z,23.00
2017-07-16T13:38:44.258Z,22.80
2017-07-16T13:41:12.628Z,22.80
2017-07-16T13:43:41.090Z,23.00
2017-07-16T13:46:08.717Z,23.00
2017-07-16T13:48:37.088Z,23.50
2017-07-16T13:51:04.742Z,23.50
2017-07-16T13:53:32.270Z,23.90
2017-07-16T13:56:00.572Z,24.00
2017-07-16T13:58:28.131Z,23.90
2017-07-16T14:00:55.858Z,24.10
2017-07-16T14:03:23.372Z,24.10
2017-07-16T14:05:50.952Z,24.20
2017-07-16T14:08:18.560Z,24.10
2017-07-16T14:10:46.864Z,23.90
2017-07-16T14:13:14.417Z,23.90
2017-07-16T14:15:41.944Z,23.90
2017-07-16T14:18:09.465Z,24.00
2017-07-16T14:20:37.017Z,23.80
2017-07-16T14:23:04.547Z,23.70
2017-07-16T14:25:32.137Z,23.70
2017-07-16T14:27:59.654Z,23.70
2017-07-16T14:30:27.298Z,23.60
2017-07-16T14:32:54.852Z,23.80
2017-07-16T14:35:22.457Z,23.50
2017-07-16T14:37:49.976Z,23.30
2017-07-16T14:40:17.492Z,23.10
2017-07-16T14:42:45.050Z,23.00
2017-07-16T14:45:12.578Z,23.00
2017-07-16T14:47:40.095Z,22.80
2017-07-16T14:50:07.667Z,22.50
2017-07-16T14:52:35.184Z,22.60
2017-07-16T14:55:02.703Z,22.90
2017-07-16T14:57:30.260Z,22.90
2017-07-16T14:59:57.773Z,23.00
2017-07-16T15:02:26.052Z,23.00
2017-07-16T15:04:53.602Z,22.90
2017-07-16T15:07:21.225Z,22.70
2017-07-16T15:09:48.955Z,22.60
2017-07-16T15:12:16.505Z,22.60
2017-07-16T15:14:44.029Z,22.80
2017-07-16T15:17:12.093Z,22.80
2017-07-16T15:19:40.465Z,22.80
2017-07-16T15:22:08.175Z,22.70
2017-07-16T15:24:35.704Z,22.80
2017-07-16T15:27:03.985Z,22.90
2017-07-16T15:29:31.593Z,22.90
2017-07-16T15:31:59.108Z,23.00
2017-07-16T15:34:26.629Z,22.90
2017-07-16T15:36:54.365Z,22.80
2017-07-16T15:39:21.909Z,22.60
2017-07-16T15:41:49.524Z,22.60
2017-07-16T15:44:17.231Z,22.50
2017-07-16T15:46:44.804Z,22.80
2017-07-16T15:49:12.377Z,22.90
2017-07-16T15:51:39.904Z,22.90
2017-07-16T15:54:07.472Z,23.00
2017-07-16T15:56:35.140Z,22.90
2017-07-16T15:59:02.697Z,23.00
2017-07-16T16:01:30.223Z,23.10
2017-07-16T16:03:57.794Z,23.10
2017-07-16T16:06:25.426Z,23.10
2017-07-16T16:08:53.054Z,23.00
2017-07-16T16:11:20.828Z,22.90
2017-07-16T16:13:48.381Z,22.80
2017-07-16T16:16:15.904Z,22.80
2017-07-16T16:18:44.253Z,22.80
2017-07-16T16:21:11.764Z,22.70
2017-07-16T16:23:39.286Z,22.70
2017-07-16T16:26:06.830Z,22.50
2017-07-16T16:28:34.459Z,22.50
2017-07-16T16:31:02.019Z,22.60
2017-07-16T16:33:29.835Z,22.60
2017-07-16T16:35:57.393Z,22.60
2017-07-16T16:38:24.937Z,22.50
2017-07-16T16:40:53.343Z,22.40
2017-07-16T16:43:20.914Z,22.40
2017-07-16T16:45:49.258Z,22.40
2017-07-16T16:48:16.839Z,22.40
2017-07-16T16:50:44.363Z,22.40
2017-07-16T16:53:12.000Z,22.30
2017-07-16T16:55:39.525Z,22.30
2017-07-16T16:58:07.821Z,22.30
2017-07-16T17:00:36.188Z,22.20
2017-07-16T17:03:03.817Z,22.10
2017-07-16T17:05:31.342Z,22.10
2017-07-16T17:07:59.003Z,22.20
2017-07-16T17:10:26.516Z,22.30
2017-07-16T17:12:54.025Z,22.30
2017-07-16T17:15:21.593Z,22.30
2017-07-16T17:17:49.162Z,22.20
2017-07-16T17:20:16.681Z,22.20
2017-07-16T17:22:45.001Z,22.10
2017-07-16T17:25:12.668Z,22.00
2017-07-16T17:27:40.184Z,22.00
2017-07-16T17:30:08.583Z,21.90
2017-07-16T17:32:36.164Z,21.80
2017-07-16T17:35:03.803Z,21.90
2017-07-16T17:37:31.361Z,21.80
2017-07-16T17:39:59.688Z,21.80
2017-07-16T17:42:27.211Z,21.80
2017-07-16T17:44:54.731Z,21.80
2017-07-16T17:47:22.342Z,21.70
2017-07-16T17:49:50.087Z,21.70
2017-07-16T17:52:18.882Z,21.50
2017-07-16T17:57:25.848Z,21.50
2017-07-16T17:59:53.595Z,21.50
2017-07-16T18:02:21.921Z,21.40
2017-07-16T18:04:49.589Z,21.40
2017-07-16T18:07:17.112Z,21.40
2017-07-16T18:09:44.627Z,21.30
2017-07-16T18:12:12.189Z,21.30
2017-07-16T18:14:39.707Z,21.30
2017-07-16T18:17:07.986Z,21.10
2017-07-16T18:19:36.408Z,20.90
2017-07-16T18:22:04.007Z,20.90
2017-07-16T18:24:31.552Z,20.80
2017-07-16T18:26:59.105Z,20.60
2017-07-16T18:29:26.637Z,20.60
2017-07-16T18:31:54.154Z,20.50
2017-07-16T18:34:21.717Z,20.40
2017-07-16T18:36:49.296Z,20.20
2017-07-16T18:39:16.845Z,20.10
2017-07-16T18:41:45.239Z,19.90
2017-07-16T18:44:13.522Z,19.80
2017-07-16T18:46:41.319Z,19.70
2017-07-16T18:49:09.740Z,19.50
2017-07-16T18:51:37.273Z,19.50
2017-07-16T18:54:04.799Z,19.50
2017-07-16T18:56:32.377Z,19.30
2017-07-16T18:58:59.960Z,19.20
2017-07-16T19:01:27.499Z,19.10
2017-07-16T19:03:55.094Z,18.90
2017-07-16T19:06:22.627Z,18.80
2017-07-16T19:08:50.183Z,18.70
2017-07-16T19:11:17.708Z,18.60
2017-07-16T19:13:45.276Z,18.60
2017-07-16T19:16:12.812Z,18.60
2017-07-16T19:18:40.353Z,18.40
2017-07-16T19:21:07.912Z,18.30
2017-07-16T19:23:35.443Z,18.20
2017-07-16T19:26:02.972Z,18.10
2017-07-16T19:28:30.534Z,18.00
2017-07-16T19:30:58.083Z,17.80
2017-07-16T19:33:25.643Z,17.70
2017-07-16T19:35:53.927Z,17.60
2017-07-16T19:38:21.533Z,17.60
2017-07-16T19:40:49.046Z,17.70
2017-07-16T19:43:17.325Z,17.60
2017-07-16T19:45:44.889Z,17.50
2017-07-16T19:48:12.405Z,17.40
2017-07-16T19:50:39.980Z,17.40
2017-07-16T19:53:07.539Z,17.40
2017-07-16T19:55:35.089Z,17.30
2017-07-16T19:58:02.600Z,17.40
2017-07-16T20:00:30.198Z,17.40
2017-07-16T20:02:57.778Z,17.30
2017-07-16T20:05:25.301Z,17.30
2017-07-16T20:07:53.023Z,17.20
2017-07-16T20:10:21.342Z,17.40
2017-07-16T20:12:48.862Z,17.40
2017-07-16T20:15:17.146Z,17.10
2017-07-16T20:17:44.707Z,17.00
2017-07-16T20:20:12.224Z,17.00
2017-07-16T20:22:39.737Z,17.20
2017-07-16T20:25:07.281Z,17.10
2017-07-16T20:27:35.593Z,16.80
2017-07-16T20:30:03.141Z,16.80
2017-07-16T20:32:30.656Z,16.90
2017-07-16T20:34:58.165Z,16.70
2017-07-16T20:37:25.792Z,16.90
2017-07-16T20:39:54.245Z,16.90
2017-07-16T20:42:21.784Z,16.80
2017-07-16T20:44:49.294Z,17.10
2017-07-16T20:47:17.651Z,16.80
2017-07-16T20:49:45.206Z,16.80
2017-07-16T20:52:12.721Z,16.60
2017-07-16T20:54:40.273Z,16.70
2017-07-16T20:57:07.796Z,16.50
2017-07-16T20:59:35.332Z,16.50
2017-07-16T21:02:02.884Z,16.50
2017-07-16T21:04:30.436Z,16.30
2017-07-16T21:06:57.977Z,16.30
2017-07-16T21:09:25.520Z,16.30
2017-07-16T21:11:53.212Z,16.20
2017-07-16T21:14:20.772Z,16.20
2017-07-16T21:16:48.295Z,16.40
2017-07-16T21:19:15.814Z,16.40
2017-07-16T21:21:43.379Z,16.10
2017-07-16T21:24:10.888Z,16.10
2017-07-16T21:26:38.416Z,15.90
2017-07-16T21:29:05.959Z,15.80
2017-07-16T21:31:33.541Z,15.70
2017-07-16T21:34:01.857Z,15.70
2017-07-16T21:36:31.208Z,15.70
2017-07-16T21:39:00.595Z,15.70
2017-07-16T21:41:28.808Z,15.80
2017-07-16T21:43:58.119Z,15.70
2017-07-16T21:46:26.370Z,15.60
2017-07-16T21:48:55.823Z,15.80
2017-07-16T21:51:24.414Z,15.80
2017-07-16T21:53:52.522Z,15.90
2017-07-16T21:56:20.878Z,16.00
2017-07-16T21:58:49.829Z,16.00
2017-07-16T22:01:17.951Z,16.00
2017-07-16T22:03:45.893Z,15.90
2017-07-16T22:06:14.082Z,15.70
2017-07-16T22:08:42.079Z,15.70
2017-07-16T22:11:10.276Z,15.60
2017-07-16T22:13:38.435Z,15.50
2017-07-16T22:16:06.849Z,15.70
2017-07-16T22:18:35.062Z,15.60
2017-07-16T22:21:03.050Z,15.70
2017-07-16T22:23:31.137Z,15.70
2017-07-16T22:25:59.413Z,15.80
2017-07-16T22:28:27.554Z,15.80
2017-07-16T22:30:55.647Z,15.70
2017-07-16T22:33:24.340Z,15.40
2017-07-16T22:35:52.263Z,15.40
2017-07-16T22:38:20.322Z,15.40
2017-07-16T22:40:48.349Z,15.40
2017-07-16T22:43:16.419Z,15.50
2017-07-16T22:45:44.637Z,15.60
2017-07-16T22:48:13.134Z,15.80
2017-07-16T22:50:41.208Z,15.60
2017-07-16T22:53:09.251Z,15.50
2017-07-16T22:55:38.087Z,15.50
2017-07-16T22:58:06.275Z,15.40
2017-07-16T23:00:34.182Z,15.20
2017-07-16T23:03:03.000Z,15.10
2017-07-16T23:05:31.323Z,15.10
2017-07-16T23:07:59.467Z,15.30
2017-07-16T23:10:27.511Z,15.20
2017-07-16T23:12:56.402Z,15.30
2017-07-16T23:15:24.439Z,15.30
2017-07-16T23:17:53.053Z,15.30
2017-07-16T23:20:21.019Z,15.30
2017-07-16T23:22:49.674Z,15.50
2017-07-16T23:25:17.785Z,15.50
2017-07-16T23:27:45.841Z,15.70
2017-07-16T23:30:13.690Z,15.60
2017-07-16T23:32:41.941Z,15.50
2017-07-16T23:35:09.827Z,15.40
2017-07-16T23:37:38.682Z,15.40
2017-07-16T23:40:06.787Z,15.30
2017-07-16T23:42:34.869Z,15.30
2017-07-16T23:45:02.956Z,15.30
2017-07-16T23:47:31.852Z,15.30
2017-07-16T23:50:00.052Z,15.20
2017-07-16T23:52:28.074Z,15.00
2017-07-16T23:54:56.228Z,14.90
2017-07-16T23:57:24.168Z,15.00
2017-07-16T23:59:52.203Z,15.00
